Time;durP1;ratioP1;P1;durP2;ratioP2;P2;SDS_P1;SDS_P2;PMS_P1;PMS_P2;Temp;Humidity;BMP_temperature;BMP_pressure;BME280_temperature;BME280_humidity;BME280_pressure;Samples;Min_cycle;Max_cycle;Signal;HPM_P1;HPM_P2
2021/01/29 01:38:54;;;;;;;11.55;7.17;;;;;;;1.74;80.97;98906.44;3124816;75;22860;-70
2021/01/29 01:42:57;;;;;;;7.12;5.10;;;;;;;1.60;80.73;98908.20;3078233;77;21129;-70
2021/01/29 01:47:25;;;;;;;9.85;6.00;;;;;;;1.51;80.22;98907.03;3078263;77;21097;-70
2021/01/29 01:51:45;;;;;;;6.42;5.05;;;;;;;1.48;80.28;98905.92;3122204;76;21158;-70
2021/01/29 01:55:54;;;;;;;8.05;5.05;;;;;;;1.43;80.22;98904.91;2971313;78;21582;-70
2021/01/29 02:00:05;;;;;;;9.40;5.37;;;;;;;1.23;80.35;98893.59;2960061;80;21120;-70
2021/01/29 02:04:11;;;;;;;10.03;5.47;;;;;;;1.23;80.35;98893.59;2960239;80;21130;-70
2021/01/29 02:08:19;;;;;;;7.55;6.03;;;;;;;1.10;80.71;98884.39;2960021;79;21616;-70
2021/01/29 02:12:21;;;;;;;11.50;6.85;;;;;;;1.10;80.71;98884.39;2987853;77;21102;-70
2021/01/29 02:16:47;;;;;;;17.50;7.05;;;;;;;0.83;80.20;98861.69;3011066;77;21161;-70
2021/01/29 02:21:25;;;;;;;18.15;7.22;;;;;;;0.82;80.57;98884.88;3007302;79;21149;-70
2021/01/29 02:26:23;;;;;;;14.40;7.55;;;;;;;0.82;80.57;98884.88;3006448;79;21168;-69
2021/01/29 02:30:57;;;;;;;13.88;6.50;;;;;;;0.80;81.18;98890.69;3007320;79;21173;-71
2021/01/29 02:35:38;;;;;;;8.20;4.42;;;;;;;0.75;81.92;98899.28;3007310;79;21101;-71
2021/01/29 02:40:15;;;;;;;11.20;6.72;;;;;;;0.76;82.51;98899.65;3005937;79;21150;-71
2021/01/29 02:44:56;;;;;;;6.45;5.15;;;;;;;0.84;82.68;98894.30;3006891;78;21165;-71
2021/01/29 02:49:13;;;;;;;7.50;4.47;;;;;;;0.88;82.70;98896.72;3006474;78;21591;-71
2021/01/29 02:53:44;;;;;;;17.15;5.53;;;;;;;0.83;82.36;98907.50;3005157;79;21134;-70
2021/01/29 02:58:08;;;;;;;5.22;3.10;;;;;;;0.83;82.13;98903.58;3006187;78;21113;-71
2021/01/29 03:02:19;;;;;;;5.65;4.55;;;;;;;0.80;81.89;98895.92;3005822;79;21141;-71
2021/01/29 03:06:34;;;;;;;7.00;4.20;;;;;;;0.82;81.84;98883.09;2977184;79;21106;-71
2021/01/29 03:10:58;;;;;;;5.87;3.85;;;;;;;0.78;81.82;98889.92;3006206;79;21133;-71
2021/01/29 03:15:29;;;;;;;8.95;5.22;;;;;;;0.85;81.51;98882.06;3088562;76;27944;-69
2021/01/29 03:20:03;;;;;;;4.35;3.35;;;;;;;0.87;81.40;98881.49;3064763;76;21121;-69
2021/01/29 03:24:33;;;;;;;5.70;4.30;;;;;;;0.89;81.21;98882.72;3064677;77;21125;-69
2021/01/29 03:28:43;;;;;;;8.45;4.83;;;;;;;0.79;81.07;98839.27;3036356;77;21157;-69
2021/01/29 03:32:50;;;;;;;7.42;5.28;;;;;;;0.92;80.38;98861.08;3009402;78;21630;-69
2021/01/29 03:37:24;;;;;;;9.63;6.92;;;;;;;0.94;80.33;98865.75;3018519;77;21080;-69
2021/01/29 03:41:32;;;;;;;7.45;5.12;;;;;;;1.00;80.09;98871.06;3064814;77;21124;-69
2021/01/29 03:45:46;;;;;;;12.53;6.72;;;;;;;0.99;80.41;98874.16;3065115;77;21120;-69
2021/01/29 03:50:14;;;;;;;14.70;6.47;;;;;;;1.01;80.33;98885.01;3043511;77;21554;-69
2021/01/29 03:54:28;;;;;;;8.75;5.17;;;;;;;0.97;80.53;98887.80;3009964;79;21132;-69
2021/01/29 03:58:48;;;;;;;6.00;5.42;;;;;;;0.97;80.92;98877.33;3009838;79;21108;-67
2021/01/29 04:03:25;;;;;;;12.82;4.53;;;;;;;1.02;80.71;98880.14;3007853;77;21113;-68
2021/01/29 04:07:35;;;;;;;10.30;6.15;;;;;;;1.07;80.57;98867.58;2981232;79;21588;-68
2021/01/29 04:11:52;;;;;;;5.37;3.87;;;;;;;1.06;80.74;98854.94;3006910;79;21132;-66
2021/01/29 04:15:55;;;;;;;13.15;9.65;;;;;;;1.15;80.80;98867.91;2956291;80;21144;-67
2021/01/29 04:20:25;;;;;;;14.47;7.10;;;;;;;1.18;80.55;98872.97;2877341;82;21155;-68
2021/01/29 04:24:33;;;;;;;8.05;5.72;;;;;;;1.18;80.20;98871.66;2845747;83;21182;-66
2021/01/29 04:28:44;;;;;;;13.30;7.80;;;;;;;1.22;80.09;98859.17;2846330;83;21115;-66
2021/01/29 04:32:54;;;;;;;10.15;7.00;;;;;;;1.22;80.09;98859.17;2846558;83;21186;-66
2021/01/29 04:37:03;;;;;;;13.53;6.03;;;;;;;1.19;79.94;98856.31;2846188;83;21151;-67
2021/01/29 04:41:30;;;;;;;9.90;6.28;;;;;;;1.20;79.90;98852.74;2846172;83;21441;-66
2021/01/29 04:46:00;;;;;;;8.08;5.35;;;;;;;1.25;80.27;98851.96;2843799;83;21107;-67
2021/01/29 04:50:54;;;;;;;7.40;6.10;;;;;;;1.33;79.69;98837.50;2833940;83;21170;-67
2021/01/29 04:55:31;;;;;;;9.65;6.83;;;;;;;1.37;79.44;98849.45;2854747;83;21138;-68
2021/01/29 05:00:13;;;;;;;8.20;5.03;;;;;;;1.37;79.44;98849.45;2855458;83;21170;-68
2021/01/29 05:05:14;;;;;;;9.75;6.42;;;;;;;1.32;79.14;98827.97;2820350;83;21588;-67
2021/01/29 05:09:55;;;;;;;8.85;5.85;;;;;;;1.32;79.14;98827.97;2840777;83;21148;-68
2021/01/29 05:14:54;;;;;;;9.18;6.58;;;;;;;1.34;79.54;98820.37;2842633;83;21165;-68
2021/01/29 05:19:44;;;;;;;8.05;7.08;;;;;;;1.34;79.54;98820.37;2827125;83;21149;-66
2021/01/29 05:24:38;;;;;;;11.65;9.20;;;;;;;1.32;79.27;98820.10;2852279;82;21148;-69
2021/01/29 05:29:15;;;;;;;11.55;7.70;;;;;;;1.32;79.27;98820.10;2803807;83;21129;-66
2021/01/29 05:33:57;;;;;;;10.05;6.33;;;;;;;1.24;79.26;98792.65;2831427;82;21156;-66
2021/01/29 05:38:39;;;;;;;14.05;6.87;;;;;;;1.30;79.23;98789.24;2824996;84;21152;-66
2021/01/29 05:43:07;;;;;;;13.90;7.28;;;;;;;1.20;78.92;98766.76;2840303;82;21160;-66
2021/01/29 05:48:05;;;;;;;14.33;7.65;;;;;;;1.20;78.92;98766.76;2824196;84;21622;-66
2021/01/29 05:52:34;;;;;;;11.53;6.12;;;;;;;1.18;78.74;98768.19;2824901;84;21198;-66
2021/01/29 05:57:10;;;;;;;8.95;5.08;;;;;;;1.26;78.86;98786.84;2842493;83;21159;-66
2021/01/29 06:01:51;;;;;;;11.20;4.00;;;;;;;1.31;79.00;98777.81;2845174;82;21171;-66
2021/01/29 06:06:36;;;;;;;9.93;4.83;;;;;;;1.30;78.89;98780.92;2797673;85;21132;-65
2021/01/29 06:10:47;;;;;;;8.08;4.20;;;;;;;1.33;78.88;98782.02;2845290;83;21164;-65
2021/01/29 06:15:27;;;;;;;6.67;4.60;;;;;;;1.30;78.25;98763.05;2814317;81;21116;-65
2021/01/29 06:20:25;;;;;;;7.75;4.70;;;;;;;1.30;78.25;98763.05;2868078;83;21161;-66
2021/01/29 06:25:07;;;;;;;9.68;4.50;;;;;;;1.24;77.75;98777.39;2868878;82;21165;-65
2021/01/29 06:29:44;;;;;;;5.72;4.58;;;;;;;1.01;77.88;98740.49;2867963;82;21126;-65
2021/01/29 06:34:32;;;;;;;12.17;6.27;;;;;;;1.10;78.37;98747.75;2855411;81;21151;-65
2021/01/29 06:38:57;;;;;;;5.10;3.83;;;;;;;1.31;78.57;98752.47;2867285;83;21166;-65
2021/01/29 06:43:17;;;;;;;6.97;4.80;;;;;;;1.53;77.61;98762.30;2867109;83;21178;-65
2021/01/29 06:48:15;;;;;;;10.08;5.60;;;;;;;1.47;76.36;98760.11;2867223;83;21138;-66
2021/01/29 06:52:36;;;;;;;7.67;5.28;;;;;;;1.70;77.15;98710.03;2867214;83;21585;-66
2021/01/29 06:57:04;;;;;;;13.72;8.85;;;;;;;1.70;77.15;98710.03;2864692;83;21154;-66
2021/01/29 07:01:27;;;;;;;46.53;18.62;;;;;;;1.78;75.90;98736.17;2858600;83;21126;-66
2021/01/29 07:06:18;;;;;;;93.55;34.83;;;;;;;1.90;76.13;98747.58;2866915;83;21182;-67
2021/01/29 07:10:49;;;;;;;50.92;22.48;;;;;;;1.89;74.98;98740.20;2866903;83;21158;-67
2021/01/29 07:15:14;;;;;;;25.12;10.75;;;;;;;1.79;74.88;98747.88;2866433;83;21146;-67
2021/01/29 07:20:13;;;;;;;24.07;13.68;;;;;;;1.74;74.97;98739.47;2855735;82;21575;-67
2021/01/29 07:24:56;;;;;;;9.50;6.35;;;;;;;1.89;76.16;98734.10;2845697;83;21146;-67
2021/01/29 07:29:21;;;;;;;39.33;17.23;;;;;;;2.09;75.89;98716.47;2797858;85;21200;-67
2021/01/29 07:33:45;;;;;;;43.95;15.78;;;;;;;2.20;75.18;98697.81;2825617;83;21190;-67
2021/01/29 07:38:44;;;;;;;13.80;8.85;;;;;;;2.24;75.01;98679.58;2851702;83;21108;-68
2021/01/29 07:43:24;;;;;;;8.45;6.25;;;;;;;2.25;74.76;98671.58;2845389;83;21148;-67
2021/01/29 07:47:52;;;;;;;7.85;5.37;;;;;;;2.33;74.98;98674.95;2798111;83;21172;-67
2021/01/29 07:52:18;;;;;;;23.98;12.18;;;;;;;2.34;74.60;98658.75;2845504;83;21172;-67
2021/01/29 07:57:16;;;;;;;20.12;11.45;;;;;;;2.30;74.45;98643.70;2845520;83;21132;-67
2021/01/29 08:01:33;;;;;;;10.25;6.12;;;;;;;2.30;74.55;98650.75;2845549;83;21151;-67
2021/01/29 08:06:01;;;;;;;8.40;6.75;;;;;;;2.32;74.42;98650.16;2845661;83;21085;-67
2021/01/29 08:10:12;;;;;;;10.05;7.10;;;;;;;2.35;74.43;98639.43;2797758;85;21147;-66
2021/01/29 08:14:45;;;;;;;12.00;8.65;;;;;;;2.40;74.30;98630.27;2842810;82;21144;-66
2021/01/29 08:19:31;;;;;;;8.90;5.55;;;;;;;2.44;74.47;98632.17;2806177;83;21159;-67
2021/01/29 08:24:08;;;;;;;12.85;6.35;;;;;;;2.55;74.09;98630.91;2879823;82;21154;-66
2021/01/29 08:28:34;;;;;;;10.35;5.65;;;;;;;2.68;74.29;98625.55;2831596;84;21150;-66
2021/01/29 08:33:15;;;;;;;10.13;7.87;;;;;;;2.85;74.06;98620.81;2821677;82;22224;-67
2021/01/29 08:38:00;;;;;;;11.70;8.58;;;;;;;3.02;73.63;98622.63;2880308;82;21114;-67
2021/01/29 08:42:34;;;;;;;8.80;6.62;;;;;;;3.11;72.97;98615.33;2830950;84;21167;-66
2021/01/29 08:46:55;;;;;;;28.27;19.80;;;;;;;3.17;73.16;98607.45;2879839;82;21115;-67
2021/01/29 08:51:12;;;;;;;46.63;27.22;;;;;;;3.19;73.10;98611.64;2879474;82;21211;-66
2021/01/29 08:55:40;;;;;;;23.67;20.25;;;;;;;3.07;73.63;98612.59;2880003;82;21135;-67
2021/01/29 08:59:43;;;;;;;24.35;15.32;;;;;;;2.99;73.91;98607.46;2861329;82;21096;-67
2021/01/29 09:03:55;;;;;;;41.13;23.40;;;;;;;3.00;73.68;98605.66;2879676;82;22244;-66
2021/01/29 09:08:02;;;;;;;39.23;25.05;;;;;;;2.89;73.84;98595.98;2880020;82;21187;-67
2021/01/29 09:12:16;;;;;;;24.67;18.25;;;;;;;2.71;74.35;98595.12;2880078;82;21171;-66
2021/01/29 09:16:34;;;;;;;41.80;26.15;;;;;;;2.64;74.67;98590.45;2879364;82;21162;-67
2021/01/29 09:20:49;;;;;;;61.83;34.98;;;;;;;2.66;74.75;98590.70;2890818;82;21178;-67
2021/01/29 09:25:29;;;;;;;50.28;29.45;;;;;;;2.77;74.84;98585.13;2894995;82;21143;-66
2021/01/29 09:29:59;;;;;;;54.05;33.67;;;;;;;2.83;74.09;98585.95;2894983;82;21166;-66
2021/01/29 09:34:26;;;;;;;59.45;36.28;;;;;;;2.78;73.91;98574.98;2895122;81;21158;-66
2021/01/29 09:38:54;;;;;;;124.40;71.70;;;;;;;2.63;74.42;98564.70;3116984;75;22566;-65
2021/01/29 09:43:24;;;;;;;41.80;26.30;;;;;;;2.76;75.07;98560.64;3048061;77;21105;-65
2021/01/29 09:47:28;;;;;;;64.10;40.80;;;;;;;3.06;74.00;98551.81;3064222;77;21105;-64
2021/01/29 09:52:02;;;;;;;102.32;58.02;;;;;;;3.25;73.11;98543.32;3021008;77;21177;-64
2021/01/29 09:56:17;;;;;;;45.60;30.60;;;;;;;3.34;72.33;98531.21;2974914;79;21128;-65
2021/01/29 10:00:34;;;;;;;38.63;27.60;;;;;;;3.36;71.87;98526.70;2960772;80;21124;-66
2021/01/29 10:05:07;;;;;;;53.08;31.30;;;;;;;3.43;71.75;98506.83;2960774;80;21201;-67
2021/01/29 10:09:20;;;;;;;76.05;51.95;;;;;;;3.47;71.53;98498.23;2960794;80;21163;-66
2021/01/29 10:14:04;;;;;;;41.80;28.27;;;;;;;3.63;71.78;98493.86;2960802;80;21109;-66
2021/01/29 10:18:12;;;;;;;28.67;18.73;;;;;;;3.73;70.96;98480.79;3044877;78;21125;-66
2021/01/29 10:22:33;;;;;;;35.45;23.83;;;;;;;3.77;70.43;98468.59;3050953;78;21118;-66
2021/01/29 10:26:42;;;;;;;54.05;26.27;;;;;;;3.83;70.61;98463.27;3051582;78;21145;-65
2021/01/29 10:30:50;;;;;;;34.50;22.75;;;;;;;3.78;69.92;98458.41;3051311;77;21094;-65
2021/01/29 10:35:23;;;;;;;48.78;26.65;;;;;;;3.79;70.56;98457.45;3051445;77;21148;-65
2021/01/29 10:39:32;;;;;;;28.25;17.98;;;;;;;3.82;70.59;98451.93;3051096;77;21118;-65
2021/01/29 10:43:47;;;;;;;49.98;31.90;;;;;;;3.91;70.72;98446.85;3049510;78;21094;-66
2021/01/29 10:48:01;;;;;;;25.95;14.78;;;;;;;3.97;70.34;98449.80;3050786;77;21089;-66
2021/01/29 10:52:41;;;;;;;35.08;20.25;;;;;;;3.98;69.81;98443.58;3050343;76;21145;-66
2021/01/29 10:57:07;;;;;;;35.03;26.20;;;;;;;4.02;69.43;98440.22;3050378;77;21173;-65
2021/01/29 11:01:31;;;;;;;59.53;35.03;;;;;;;4.07;69.51;98439.34;3050124;77;21141;-66
2021/01/29 11:05:39;;;;;;;34.13;19.90;;;;;;;4.14;70.01;98437.87;3050739;77;21106;-65
2021/01/29 11:09:46;;;;;;;43.87;23.07;;;;;;;4.20;69.56;98434.36;3050190;77;21125;-65
2021/01/29 11:14:23;;;;;;;48.13;29.90;;;;;;;4.23;69.75;98430.15;3022032;78;21101;-66
2021/01/29 11:18:35;;;;;;;19.65;12.25;;;;;;;4.25;69.88;98425.12;3050361;78;22109;-66
2021/01/29 11:23:02;;;;;;;23.65;15.48;;;;;;;4.20;69.42;98422.02;3050175;77;21603;-65
2021/01/29 11:27:13;;;;;;;22.93;14.58;;;;;;;4.11;68.76;98411.80;3050261;77;21149;-65
2021/01/29 11:31:38;;;;;;;24.30;13.53;;;;;;;4.06;68.91;98411.36;3050027;78;21078;-65
2021/01/29 11:35:46;;;;;;;30.25;22.82;;;;;;;3.96;69.13;98407.36;3049557;77;21180;-66
2021/01/29 11:40:13;;;;;;;38.95;30.92;;;;;;;3.84;69.41;98397.39;3050398;77;21158;-66
2021/01/29 11:44:28;;;;;;;40.90;23.05;;;;;;;3.75;70.04;98390.30;3050371;77;21122;-63
2021/01/29 11:48:47;;;;;;;43.70;27.48;;;;;;;3.69;69.62;98388.16;3050366;76;21113;-67
2021/01/29 11:53:01;;;;;;;37.45;24.23;;;;;;;3.60;70.01;98373.17;3050314;78;21121;-66
2021/01/29 11:57:16;;;;;;;39.88;24.75;;;;;;;3.57;69.17;98371.62;3030313;78;21078;-66
2021/01/29 12:01:36;;;;;;;39.73;25.43;;;;;;;3.54;70.07;98369.25;3046025;78;21126;-66
2021/01/29 12:06:01;;;;;;;32.03;21.25;;;;;;;3.48;69.74;98363.20;3049834;78;21117;-65
2021/01/29 12:10:27;;;;;;;72.12;57.45;;;;;;;3.46;69.67;98354.61;3050250;78;21117;-65
2021/01/29 12:15:08;;;;;;;61.00;53.48;;;;;;;3.43;69.08;98349.12;3050531;78;21106;-66
2021/01/29 12:19:14;;;;;;;23.85;15.03;;;;;;;3.42;68.72;98347.45;3050140;77;21149;-66
2021/01/29 12:23:45;;;;;;;27.90;15.80;;;;;;;3.41;68.72;98333.45;3046975;78;21449;-66
2021/01/29 12:28:05;;;;;;;27.40;20.85;;;;;;;3.42;68.72;98331.68;3050198;78;21180;-66
2021/01/29 12:32:37;;;;;;;16.62;10.95;;;;;;;3.41;68.63;98331.33;3050490;78;21122;-66
2021/01/29 12:36:41;;;;;;;47.10;28.50;;;;;;;3.38;68.47;98314.50;3050102;77;21126;-66
2021/01/29 12:40:56;;;;;;;48.42;30.10;;;;;;;3.37;68.66;98307.58;3051701;77;21098;-66
2021/01/29 12:45:39;;;;;;;65.28;32.33;;;;;;;3.40;67.57;98286.30;3050570;78;21391;-65
2021/01/29 12:50:03;;;;;;;71.57;49.55;;;;;;;3.42;67.70;98280.42;3009404;76;21179;-66
2021/01/29 12:54:23;;;;;;;41.42;29.55;;;;;;;3.48;68.80;98272.01;3049896;78;21125;-66
2021/01/29 12:58:26;;;;;;;40.43;23.77;;;;;;;3.57;69.27;98273.88;3049954;78;21126;-67
2021/01/29 13:02:53;;;;;;;68.72;36.75;;;;;;;3.63;69.43;98271.67;3050645;77;21086;-66
2021/01/29 13:07:08;;;;;;;86.60;44.73;;;;;;;3.66;69.44;98261.73;3050601;78;21568;-66
2021/01/29 13:11:25;;;;;;;118.72;60.43;;;;;;;3.71;69.58;98254.74;3050624;78;21117;-65
2021/01/29 13:15:56;;;;;;;40.78;19.57;;;;;;;3.73;68.71;98254.63;3049589;78;22243;-66
2021/01/29 13:20:06;;;;;;;116.85;58.65;;;;;;;3.60;66.75;98249.09;3050141;78;21129;-66
2021/01/29 13:24:21;;;;;;;77.35;42.80;;;;;;;3.43;66.28;98246.60;3049965;78;21137;-65
2021/01/29 13:28:26;;;;;;;62.45;31.40;;;;;;;3.35;66.85;98242.49;3047269;77;21097;-66
2021/01/29 13:32:37;;;;;;;44.63;25.35;;;;;;;3.31;66.75;98233.17;3050266;77;21117;-65
2021/01/29 13:37:04;;;;;;;20.90;12.60;;;;;;;3.27;67.41;98226.88;3050117;77;21552;-66
2021/01/29 13:41:26;;;;;;;21.65;14.95;;;;;;;3.24;67.77;98221.88;3050480;77;21109;-61
2021/01/29 13:45:31;;;;;;;21.93;11.18;;;;;;;3.24;67.88;98219.72;3049342;77;21591;-61
2021/01/29 13:49:41;;;;;;;16.10;9.65;;;;;;;3.21;68.24;98221.30;3038965;76;21171;-62
2021/01/29 13:53:44;;;;;;;27.48;16.07;;;;;;;3.12;68.36;98220.28;2998193;78;21551;-61
2021/01/29 13:58:40;;;;;;;14.35;11.88;;;;;;;3.11;69.09;98225.18;3008495;79;21092;-61
2021/01/29 14:03:01;;;;;;;20.17;11.37;;;;;;;3.11;69.67;98218.61;3009150;79;21159;-61
2021/01/29 14:07:05;;;;;;;19.55;11.38;;;;;;;3.11;70.13;98210.73;3008996;79;21104;-61
2021/01/29 14:11:44;;;;;;;38.90;22.20;;;;;;;3.12;69.70;98211.08;3009318;79;21108;-62
2021/01/29 14:16:09;;;;;;;22.82;14.35;;;;;;;3.13;70.31;98199.14;3009155;78;21732;-62
2021/01/29 14:20:33;;;;;;;24.57;15.72;;;;;;;3.17;70.50;98199.73;3009035;79;21104;-60
2021/01/29 14:24:57;;;;;;;28.90;17.40;;;;;;;3.22;70.50;98189.65;3009549;79;21144;-63
2021/01/29 14:29:44;;;;;;;19.48;12.03;;;;;;;3.27;70.26;98184.83;3083679;75;23319;-60
2021/01/29 14:34:42;;;;;;;25.10;15.32;;;;;;;3.27;70.45;98185.33;3044341;77;21128;-62
2021/01/29 14:38:56;;;;;;;18.48;12.98;;;;;;;3.28;70.08;98183.05;2939058;79;21165;-62
2021/01/29 14:43:28;;;;;;;25.20;16.45;;;;;;;3.29;70.23;98183.39;2918994;80;21176;-60
2021/01/29 14:47:53;;;;;;;31.50;17.37;;;;;;;3.29;70.11;98183.39;2895493;80;21113;-62
2021/01/29 14:52:04;;;;;;;18.92;14.70;;;;;;;3.21;70.24;98184.05;2889112;80;21189;-63
2021/01/29 14:57:03;;;;;;;21.77;13.18;;;;;;;3.13;70.79;98187.32;2979392;79;21102;-63
2021/01/29 15:01:10;;;;;;;22.05;13.38;;;;;;;2.97;70.88;98183.00;2907414;79;21213;-62
2021/01/29 15:05:42;;;;;;;26.90;15.00;;;;;;;2.85;72.49;98184.88;2926367;78;21184;-62
2021/01/29 15:09:59;;;;;;;30.12;16.82;;;;;;;2.76;72.85;98181.22;2891795;81;21148;-64
2021/01/29 15:14:05;;;;;;;15.32;11.63;;;;;;;2.69;73.94;98172.20;2840310;82;21263;-63
2021/01/29 15:18:14;;;;;;;15.75;11.55;;;;;;;2.64;74.34;98178.29;2818532;82;21218;-62
2021/01/29 15:22:21;;;;;;;18.98;12.07;;;;;;;2.54;74.95;98183.47;2824820;83;21207;-62
2021/01/29 15:26:24;;;;;;;18.15;13.60;;;;;;;2.49;75.68;98179.08;2819508;83;21674;-62
2021/01/29 15:30:42;;;;;;;17.30;13.35;;;;;;;2.48;76.22;98187.91;2802416;82;21208;-61
2021/01/29 15:35:03;;;;;;;27.37;16.93;;;;;;;2.49;76.21;98189.58;2799360;84;21208;-62
2021/01/29 15:39:28;;;;;;;19.70;14.18;;;;;;;2.45;76.12;98190.30;2793657;82;21638;-62
2021/01/29 15:43:38;;;;;;;21.37;13.05;;;;;;;2.42;76.76;98195.80;2791780;84;21188;-62
2021/01/29 15:47:53;;;;;;;21.23;15.08;;;;;;;2.43;77.16;98194.38;2791426;84;21184;-64
2021/01/29 15:52:07;;;;;;;17.90;12.40;;;;;;;2.38;77.19;98195.25;2815607;83;21624;-62
2021/01/29 15:56:27;;;;;;;19.75;14.43;;;;;;;2.36;77.45;98199.79;2858023;81;21174;-62
2021/01/29 16:00:43;;;;;;;26.10;17.10;;;;;;;2.32;77.56;98200.97;2834910;83;21286;-62
2021/01/29 16:04:55;;;;;;;29.70;19.37;;;;;;;2.22;77.99;98194.81;2852582;82;21129;-62
2021/01/29 16:09:23;;;;;;;32.58;17.48;;;;;;;2.17;78.44;98200.92;2855808;82;21227;-62
2021/01/29 16:13:36;;;;;;;26.42;15.88;;;;;;;2.09;78.68;98204.98;2866612;82;21173;-62
2021/01/29 16:18:02;;;;;;;24.35;15.25;;;;;;;1.99;79.17;98208.00;2850348;82;21119;-62
2021/01/29 16:22:11;;;;;;;33.80;17.70;;;;;;;2.04;79.36;98212.39;2863657;82;21172;-63
2021/01/29 16:26:18;;;;;;;33.25;17.23;;;;;;;1.95;79.26;98218.35;2855813;82;21203;-64
2021/01/29 16:30:34;;;;;;;25.85;20.52;;;;;;;1.85;79.62;98209.92;2865810;82;21895;-64
2021/01/29 16:34:37;;;;;;;34.30;22.42;;;;;;;1.80;79.94;98214.70;2860869;82;21200;-62
2021/01/29 16:38:45;;;;;;;36.40;24.75;;;;;;;1.77;80.24;98225.89;2861919;81;21236;-63
2021/01/29 16:42:51;;;;;;;34.50;20.57;;;;;;;1.78;80.56;98226.25;2857042;81;21224;-63
2021/01/29 16:47:02;;;;;;;30.23;19.12;;;;;;;1.80;80.81;98224.34;2867559;82;21136;-62
2021/01/29 16:51:17;;;;;;;57.27;32.20;;;;;;;1.87;80.80;98229.94;2840805;82;21218;-63
2021/01/29 16:55:22;;;;;;;80.07;41.77;;;;;;;1.97;80.88;98227.77;2831729;83;21169;-62
2021/01/29 16:59:27;;;;;;;41.70;25.32;;;;;;;2.07;81.07;98223.13;2830660;83;21212;-62
2021/01/29 17:03:35;;;;;;;45.52;24.87;;;;;;;2.14;80.53;98224.29;2834827;83;21197;-63
2021/01/29 17:07:43;;;;;;;60.15;34.13;;;;;;;2.19;80.24;98225.24;2830363;83;21217;-63
2021/01/29 17:11:48;;;;;;;52.80;26.77;;;;;;;2.31;79.92;98230.80;2828862;82;21165;-62
2021/01/29 17:15:51;;;;;;;27.42;20.27;;;;;;;2.31;79.92;98230.80;2835523;83;21225;-62
2021/01/29 17:19:54;;;;;;;56.00;29.52;;;;;;;2.37;79.89;98236.88;2831075;83;21240;-62
2021/01/29 17:24:05;;;;;;;35.68;21.70;;;;;;;2.40;79.62;98234.00;2826967;83;21166;-62
2021/01/29 17:28:19;;;;;;;47.60;29.32;;;;;;;2.45;79.33;98244.10;2828676;83;21150;-62
2021/01/29 17:32:27;;;;;;;47.40;26.65;;;;;;;2.49;79.11;98248.63;2831631;82;21593;-61
2021/01/29 17:40:58;;;;;;;34.20;23.40;;;;;;;2.56;78.96;98253.76;3008756;78;22411;-59
2021/01/29 17:45:23;;;;;;;39.27;24.80;;;;;;;2.52;78.70;98261.04;2982316;79;21106;-61
2021/01/29 17:49:38;;;;;;;30.95;17.30;;;;;;;2.55;78.81;98263.87;2970552;79;21178;-60
2021/01/29 17:53:48;;;;;;;22.48;15.75;;;;;;;2.58;78.62;98272.84;2917480;81;21133;-61
2021/01/29 17:57:51;;;;;;;22.32;15.68;;;;;;;2.61;78.65;98275.20;2869894;82;21629;-62
2021/01/29 18:01:57;;;;;;;26.20;16.15;;;;;;;2.67;78.90;98274.70;2870781;82;21160;-61
2021/01/29 18:06:00;;;;;;;30.97;19.82;;;;;;;2.79;78.74;98276.80;2870747;82;21104;-62
2021/01/29 18:10:13;;;;;;;31.25;21.37;;;;;;;2.87;78.39;98274.05;2870934;82;21179;-62
2021/01/29 18:14:17;;;;;;;36.83;21.35;;;;;;;2.98;78.33;98276.14;2870904;82;21148;-61
2021/01/29 18:18:24;;;;;;;41.30;21.68;;;;;;;3.03;77.71;98281.48;2871137;81;21167;-61
2021/01/29 18:22:28;;;;;;;41.05;25.43;;;;;;;3.02;77.65;98283.75;2871251;82;21143;-62
2021/01/29 18:26:32;;;;;;;53.45;33.80;;;;;;;2.99;77.56;98285.68;2870769;82;21152;-61
2021/01/29 18:30:36;;;;;;;41.35;27.90;;;;;;;3.05;77.90;98296.63;2870966;82;21163;-62
2021/01/29 18:34:48;;;;;;;29.48;22.30;;;;;;;3.07;77.96;98292.08;2871204;82;21148;-61
2021/01/29 18:38:53;;;;;;;29.63;20.27;;;;;;;3.12;77.92;98295.16;2870512;82;21104;-61
2021/01/29 18:42:56;;;;;;;36.15;26.00;;;;;;;3.10;77.48;98293.14;2871185;82;21144;-61
2021/01/29 18:47:05;;;;;;;72.08;36.48;;;;;;;3.10;77.56;98293.14;2870487;82;21171;-62
2021/01/29 18:51:09;;;;;;;39.20;25.02;;;;;;;3.06;76.74;98290.41;2870255;81;21136;-61
2021/01/29 18:55:19;;;;;;;32.85;19.75;;;;;;;3.02;76.12;98286.38;2869748;83;21145;-62
2021/01/29 18:59:23;;;;;;;18.15;13.15;;;;;;;2.97;76.24;98294.63;2869780;83;21586;-61
2021/01/29 19:03:30;;;;;;;20.50;13.95;;;;;;;2.89;76.17;98286.07;2869562;83;21168;-63
2021/01/29 19:07:33;;;;;;;22.58;13.98;;;;;;;2.80;76.28;98287.66;2869981;81;21168;-60
2021/01/29 19:11:37;;;;;;;21.97;15.38;;;;;;;2.77;76.51;98289.72;2870241;83;21160;-60
2021/01/29 19:15:42;;;;;;;68.92;40.40;;;;;;;2.76;76.64;98290.68;2882418;81;21156;-61
2021/01/29 19:19:47;;;;;;;72.37;49.03;;;;;;;2.78;76.71;98292.70;2909918;81;21587;-60
2021/01/29 19:23:51;;;;;;;53.40;35.73;;;;;;;2.80;76.80;98293.41;2899186;82;21120;-61
2021/01/29 19:27:55;;;;;;;42.55;28.62;;;;;;;2.82;76.90;98292.30;2899145;81;21097;-60
2021/01/29 19:32:00;;;;;;;31.10;19.73;;;;;;;2.81;76.84;98285.37;2899102;82;21121;-60
2021/01/29 19:36:06;;;;;;;42.65;30.55;;;;;;;2.82;76.73;98292.80;2905994;81;21622;-61
2021/01/29 19:40:11;;;;;;;75.85;46.28;;;;;;;2.71;76.67;98291.05;2902523;81;21114;-62
2021/01/29 19:44:15;;;;;;;206.02;102.27;;;;;;;2.56;77.56;98290.50;2893292;82;21145;-61
2021/01/29 19:48:18;;;;;;;85.92;42.80;;;;;;;2.60;78.07;98291.92;2893753;82;21173;-61
2021/01/29 19:52:22;;;;;;;89.47;51.80;;;;;;;2.56;77.68;98290.50;2893979;82;21174;-61
2021/01/29 19:56:35;;;;;;;244.68;145.22;;;;;;;2.38;77.75;98292.34;2894165;82;21129;-62
2021/01/29 20:00:40;;;;;;;112.30;64.12;;;;;;;2.24;78.28;98294.72;2893816;82;21154;-61
2021/01/29 20:04:44;;;;;;;77.00;42.00;;;;;;;2.10;78.89;98289.76;2894323;82;21142;-61
2021/01/29 20:08:46;;;;;;;49.95;32.35;;;;;;;2.03;79.51;98289.41;2894168;82;21169;-62
2021/01/29 20:12:50;;;;;;;38.92;26.57;;;;;;;2.05;79.81;98287.48;2893944;82;21125;-61
2021/01/29 20:16:55;;;;;;;32.85;16.93;;;;;;;2.08;79.48;98284.62;2890975;82;21627;-62
2021/01/29 20:20:57;;;;;;;30.23;17.30;;;;;;;1.88;78.18;98273.55;2894016;82;21186;-61
2021/01/29 20:25:00;;;;;;;19.27;10.15;;;;;;;1.59;78.31;98279.28;2894127;82;21125;-62
2021/01/29 20:29:04;;;;;;;17.55;13.58;;;;;;;1.45;78.74;98272.00;2893864;82;21734;-61
2021/01/29 20:33:07;;;;;;;27.25;10.10;;;;;;;1.49;79.11;98280.47;2894175;82;21156;-62
2021/01/29 20:37:11;;;;;;;19.27;11.30;;;;;;;1.45;78.23;98269.38;2893842;82;21660;-61
2021/01/29 20:41:18;;;;;;;17.77;9.18;;;;;;;1.33;78.23;98270.30;2904793;81;21588;-61
2021/01/29 20:45:25;;;;;;;9.28;7.08;;;;;;;1.32;78.46;98259.46;2906501;81;21141;-61
2021/01/29 20:49:28;;;;;;;32.45;19.60;;;;;;;1.36;77.83;98252.57;2906225;81;21735;-62
2021/01/29 20:53:31;;;;;;;33.58;16.42;;;;;;;1.41;78.22;98253.53;2911369;81;21165;-62
2021/01/29 20:57:34;;;;;;;52.30;25.27;;;;;;;1.39;77.93;98256.27;2911800;81;21157;-61
2021/01/29 21:01:37;;;;;;;39.18;18.20;;;;;;;1.31;78.16;98259.95;2911756;81;21153;-61
2021/01/29 21:05:42;;;;;;;35.73;19.60;;;;;;;1.27;78.44;98261.96;2911631;81;21169;-61
2021/01/29 21:09:45;;;;;;;39.92;21.33;;;;;;;1.21;78.89;98258.97;2906599;81;21181;-61
2021/01/29 21:13:48;;;;;;;81.22;40.70;;;;;;;1.22;79.41;98252.78;2906402;81;21165;-61
2021/01/29 21:17:53;;;;;;;75.83;45.60;;;;;;;1.54;79.90;98249.00;2906153;81;21153;-61
2021/01/29 21:21:58;;;;;;;60.75;32.23;;;;;;;1.54;79.90;98249.00;2906364;81;21149;-61
2021/01/29 21:26:03;;;;;;;117.82;67.22;;;;;;;1.68;79.48;98234.84;2906517;81;21145;-62
2021/01/29 21:30:13;;;;;;;76.33;45.35;;;;;;;1.71;79.12;98223.27;2905993;81;21181;-62
2021/01/29 21:34:18;;;;;;;141.30;82.82;;;;;;;1.87;78.88;98228.62;2905899;81;21148;-62
2021/01/29 21:38:28;;;;;;;69.12;44.10;;;;;;;1.91;78.77;98213.00;2905325;81;21200;-61
2021/01/29 21:42:31;;;;;;;39.45;23.62;;;;;;;1.91;78.77;98213.00;2893793;82;21149;-61
2021/01/29 21:46:34;;;;;;;34.53;20.85;;;;;;;2.03;78.38;98235.64;2893754;82;21153;-61
2021/01/29 21:50:38;;;;;;;43.70;27.45;;;;;;;1.92;78.39;98231.24;2894169;82;21146;-61
2021/01/29 21:54:49;;;;;;;99.70;60.67;;;;;;;1.87;79.05;98232.56;2902514;81;21168;-61